Strona główna
METAR-TAF:

METAR-TAF

Lotnisko :

Port lotniczy Bamako

Bamako, Mali

Szerokość geograficzna: 12-32N, Długość geograficzna: 007-57W, wysokość: 380 m

Aktualna obserwacja pogody

Raport powstał 1 godzina i 10 minut temu, godzina 01:30 UTC
Wiatr 2 kt od północ
Temperatura 22°C
Wilgotność 65%
Ciśnienie 1012 hPa
Widzialność 10 km lub więcej
Brak chmur poniżej 1500 m i brak chmur cumulonimbus

METAR: GABS 160130Z 36002KT CAVOK 22/15 Q1012 NOSIG

czas: 02:40 (02:40 UTC)

Prognoza

Raport powstał 3 godziny i 40 minut temu, godzina 23:00 UTC
Prognoza ważna od 16 godzina 00 UTC do 17 godzina 06 UTC
Wiatr 6 kt od północ w porywach dochodzący do 16 kt
Widzialność 10 km lub więcej
Brak chmur poniżej 1500 m i brak chmur cumulonimbus
Przejściowo
od 16 godzina 06 UTC do 16 godzina 11 UTC
Widzialność: 4000 m
zmętnienie

TAF: GABS 152300Z 1600/1706 36006G16KT CAVOK TEMPO 1606/1611 4000 HZ

Obserwacja i prognoza pogody dla ponad 4000 lotnisk (raport METAR i TAF).

Dostępne stacje oznaczono żółtymi i czerwonymi punktami na mapie.

Najedź kursorem aby zobaczyć nazwę stacji.

Kliknij aby zobaczyć obserwacje i prognozy pogody.

Aby zmienić mapę: kliknij na zielony przycisk z czarnym krzyżykiem, aby powiększyć; na zielony przycisk z myślnikiem, aby pomniejszyć; na zielone strzałki, aby przejść do map sąsiednich.


METAR-TAF: